Time;durP1;ratioP1;P1;durP2;ratioP2;P2;SDS_P1;SDS_P2;PMS_P1;PMS_P2;Temp;Humidity;BMP_temperature;BMP_pressure;BME280_temperature;BME280_humidity;BME280_pressure;Samples;Min_cycle;Max_cycle;Signal;HPM_P1;HPM_P2
2021/08/31 00:00:16;;;;;;;10.93;8.87;;;;;;;;;;5053043;28;20020;-82
2021/08/31 00:02:41;;;;;;;11.90;8.73;;;;;;;;;;5052573;28;20037;-81
2021/08/31 00:05:07;;;;;;;11.55;8.57;;;;;;;;;;5054314;28;20016;-81
2021/08/31 00:07:32;;;;;;;11.52;8.73;;;;;;;;;;5053451;28;20369;-81
2021/08/31 00:09:57;;;;;;;13.17;8.33;;;;;;;;;;5053649;28;20025;-82
2021/08/31 00:12:23;;;;;;;15.43;8.40;;;;;;;;;;5051785;28;20481;-81
2021/08/31 00:14:48;;;;;;;11.82;9.52;;;;;;;;;;5053445;28;20017;-81
2021/08/31 00:17:16;;;;;;;13.85;9.23;;;;;;;;;;5055288;28;20053;-82
2021/08/31 00:19:42;;;;;;;14.35;9.13;;;;;;;;;;5057021;28;20028;-82
2021/08/31 00:22:07;;;;;;;11.48;8.25;;;;;;;;;;5056918;28;20021;-82
2021/08/31 00:24:33;;;;;;;12.80;8.77;;;;;;;;;;5055907;28;20092;-82
2021/08/31 00:26:58;;;;;;;14.02;8.88;;;;;;;;;;5053347;28;20025;-82
2021/08/31 00:29:23;;;;;;;9.15;7.78;;;;;;;;;;5052884;28;20057;-82
2021/08/31 00:31:49;;;;;;;11.73;9.10;;;;;;;;;;5052484;28;20027;-82
2021/08/31 00:34:14;;;;;;;10.65;8.07;;;;;;;;;;5053834;28;20099;-82
2021/08/31 00:36:39;;;;;;;16.92;9.68;;;;;;;;;;5052110;28;20079;-83
2021/08/31 00:39:04;;;;;;;12.27;9.48;;;;;;;;;;5053389;28;20020;-82
2021/08/31 00:41:30;;;;;;;15.07;8.40;;;;;;;;;;5051707;28;20029;-81
2021/08/31 00:43:55;;;;;;;14.45;9.07;;;;;;;;;;5051454;28;20297;-81
2021/08/31 00:46:22;;;;;;;9.83;8.10;;;;;;;;;;5052734;28;20044;-81
2021/08/31 00:48:47;;;;;;;10.43;9.05;;;;;;;;;;5056255;28;20789;-82
2021/08/31 00:51:13;;;;;;;13.57;8.82;;;;;;;;;;5054660;28;20131;-82
2021/08/31 00:53:39;;;;;;;12.30;8.40;;;;;;;;;;5056219;28;20063;-82
2021/08/31 00:56:13;;;;;;;10.35;8.52;;;;;;;;;;5055466;28;20021;-82
2021/08/31 00:58:38;;;;;;;12.30;8.20;;;;;;;;;;5054373;28;20025;-82
2021/08/31 01:01:03;;;;;;;16.85;8.88;;;;;;;;;;5054111;28;20108;-82
2021/08/31 01:03:29;;;;;;;13.93;9.18;;;;;;;;;;5052425;28;20499;-82
2021/08/31 01:05:58;;;;;;;14.35;9.52;;;;;;;;;;5054139;28;20036;-81
2021/08/31 01:08:23;;;;;;;11.90;8.25;;;;;;;;;;5051369;28;20020;-82
2021/08/31 01:10:49;;;;;;;13.27;8.63;;;;;;;;;;5051574;28;20032;-82
2021/08/31 01:13:14;;;;;;;16.77;8.88;;;;;;;;;;5051256;28;20016;-81
2021/08/31 01:15:40;;;;;;;12.10;8.30;;;;;;;;;;5052313;28;20044;-81
2021/08/31 01:18:31;;;;;;;12.02;8.20;;;;;;;;;;5052350;28;20255;-82
2021/08/31 01:20:58;;;;;;;11.50;8.80;;;;;;;;;;5050896;28;20481;-82
2021/08/31 01:23:24;;;;;;;13.35;9.25;;;;;;;;;;5052546;28;20033;-82
2021/08/31 01:25:50;;;;;;;11.80;8.18;;;;;;;;;;5055710;28;20024;-82
2021/08/31 01:28:16;;;;;;;13.90;9.90;;;;;;;;;;5055252;28;20034;-82
2021/08/31 01:30:42;;;;;;;9.88;8.25;;;;;;;;;;5054809;28;20025;-82
2021/08/31 01:33:08;;;;;;;15.95;9.25;;;;;;;;;;5052846;28;20017;-82
2021/08/31 01:35:33;;;;;;;13.07;8.73;;;;;;;;;;5052445;28;20107;-82
2021/08/31 01:37:59;;;;;;;11.00;8.53;;;;;;;;;;5052332;28;20124;-82
2021/08/31 01:40:24;;;;;;;13.77;9.73;;;;;;;;;;5052550;28;20454;-82
2021/08/31 01:42:49;;;;;;;13.43;8.97;;;;;;;;;;5052512;28;20025;-82
2021/08/31 01:45:14;;;;;;;14.23;8.67;;;;;;;;;;5053908;28;20496;-82
2021/08/31 01:47:39;;;;;;;12.70;8.30;;;;;;;;;;5053132;28;20074;-82
2021/08/31 01:50:05;;;;;;;13.07;8.07;;;;;;;;;;5050965;28;20116;-81
2021/08/31 01:52:30;;;;;;;11.30;9.32;;;;;;;;;;5052929;28;20033;-82
2021/08/31 01:54:55;;;;;;;15.23;8.10;;;;;;;;;;5052311;28;20116;-82
2021/08/31 01:57:20;;;;;;;10.13;8.17;;;;;;;;;;5051903;28;20528;-82
2021/08/31 01:59:46;;;;;;;12.80;8.00;;;;;;;;;;5050825;28;20271;-81
2021/08/31 02:02:11;;;;;;;10.63;7.67;;;;;;;;;;5051719;28;20266;-82
2021/08/31 02:04:36;;;;;;;12.10;8.73;;;;;;;;;;5053496;28;20072;-82
2021/08/31 02:07:01;;;;;;;8.50;7.40;;;;;;;;;;5054234;28;20294;-82
2021/08/31 02:09:26;;;;;;;12.68;7.47;;;;;;;;;;5052110;28;20260;-82
2021/08/31 02:11:52;;;;;;;9.33;7.93;;;;;;;;;;5053132;28;20021;-82
2021/08/31 02:14:17;;;;;;;11.53;7.60;;;;;;;;;;5052681;28;20688;-82
2021/08/31 02:16:42;;;;;;;9.73;7.30;;;;;;;;;;5052394;28;20052;-82
2021/08/31 02:19:07;;;;;;;10.60;7.70;;;;;;;;;;5052537;28;20269;-82
2021/08/31 02:21:33;;;;;;;11.77;7.90;;;;;;;;;;5050486;28;20534;-82
2021/08/31 02:23:58;;;;;;;10.55;8.00;;;;;;;;;;5050276;28;20259;-82
2021/08/31 02:26:23;;;;;;;11.50;7.95;;;;;;;;;;5051598;28;20364;-81
2021/08/31 02:28:49;;;;;;;12.20;7.43;;;;;;;;;;5051489;28;20067;-81
2021/08/31 02:31:14;;;;;;;11.17;7.10;;;;;;;;;;5051448;28;20095;-80
2021/08/31 02:33:39;;;;;;;13.70;9.67;;;;;;;;;;5050930;28;21026;-82
2021/08/31 02:36:04;;;;;;;11.33;8.17;;;;;;;;;;5051094;28;20111;-82
2021/08/31 02:38:29;;;;;;;10.10;7.32;;;;;;;;;;5050195;28;20274;-82
2021/08/31 02:40:55;;;;;;;11.97;8.50;;;;;;;;;;5053000;28;20036;-82
2021/08/31 02:43:20;;;;;;;10.97;8.13;;;;;;;;;;5053711;28;20196;-82
2021/08/31 02:45:45;;;;;;;8.77;7.70;;;;;;;;;;5053103;28;20312;-82
2021/08/31 02:48:10;;;;;;;11.90;8.67;;;;;;;;;;5050631;28;20021;-82
2021/08/31 02:50:36;;;;;;;14.20;9.05;;;;;;;;;;5051595;28;20290;-82
2021/08/31 02:53:01;;;;;;;11.13;9.20;;;;;;;;;;5051089;28;20424;-82
2021/08/31 02:55:26;;;;;;;12.93;8.40;;;;;;;;;;5050849;28;20267;-82
2021/08/31 02:57:51;;;;;;;12.67;8.50;;;;;;;;;;5050350;28;20266;-82
2021/08/31 03:00:19;;;;;;;12.00;8.23;;;;;;;;;;5050619;28;20025;-81
2021/08/31 03:02:45;;;;;;;16.23;8.77;;;;;;;;;;5048782;28;20264;-82
2021/08/31 03:05:11;;;;;;;10.40;8.38;;;;;;;;;;5050633;28;20060;-81
2021/08/31 03:07:37;;;;;;;12.00;7.85;;;;;;;;;;5053919;28;20024;-82
2021/08/31 03:10:02;;;;;;;12.57;7.50;;;;;;;;;;5052352;28;20036;-82
2021/08/31 03:12:27;;;;;;;12.20;8.55;;;;;;;;;;5051413;28;20763;-82
2021/08/31 03:14:52;;;;;;;15.63;9.57;;;;;;;;;;5052210;28;20096;-82
2021/08/31 03:17:18;;;;;;;11.77;8.97;;;;;;;;;;5051732;28;20496;-82
2021/08/31 03:19:43;;;;;;;13.52;9.32;;;;;;;;;;5051912;28;20021;-82
2021/08/31 03:22:10;;;;;;;10.50;8.13;;;;;;;;;;5049265;28;20035;-82
2021/08/31 03:24:36;;;;;;;10.40;7.93;;;;;;;;;;5049515;28;20287;-82
2021/08/31 03:27:01;;;;;;;9.32;7.80;;;;;;;;;;5048845;28;20070;-81
2021/08/31 03:29:26;;;;;;;11.60;8.38;;;;;;;;;;5050210;28;20023;-82
2021/08/31 03:31:51;;;;;;;11.97;8.40;;;;;;;;;;5050139;28;20021;-81
2021/08/31 03:34:17;;;;;;;9.40;7.43;;;;;;;;;;5049926;28;20291;-81
2021/08/31 03:36:42;;;;;;;12.57;8.87;;;;;;;;;;5050473;28;20025;-82
2021/08/31 03:39:07;;;;;;;12.75;8.25;;;;;;;;;;5054118;28;20258;-82
2021/08/31 03:41:32;;;;;;;11.00;7.40;;;;;;;;;;5053402;28;20108;-82
2021/08/31 03:43:58;;;;;;;11.05;8.63;;;;;;;;;;5053136;28;20025;-82
2021/08/31 03:46:23;;;;;;;14.40;8.50;;;;;;;;;;5051511;28;20170;-83
2021/08/31 03:48:48;;;;;;;12.48;8.80;;;;;;;;;;5051812;28;20017;-82
2021/08/31 03:51:13;;;;;;;17.30;7.97;;;;;;;;;;5051476;28;20125;-82
2021/08/31 03:53:39;;;;;;;11.55;8.65;;;;;;;;;;5051061;28;20017;-82
2021/08/31 03:56:04;;;;;;;12.43;8.35;;;;;;;;;;5049120;28;20017;-82
2021/08/31 03:58:29;;;;;;;9.70;7.50;;;;;;;;;;5048828;28;20025;-82
2021/08/31 04:00:54;;;;;;;12.85;7.35;;;;;;;;;;5048955;28;20053;-81
2021/08/31 04:03:20;;;;;;;10.82;7.18;;;;;;;;;;5050011;28;20032;-81
2021/08/31 04:05:45;;;;;;;7.83;6.70;;;;;;;;;;5048586;28;20029;-82
2021/08/31 04:08:10;;;;;;;9.87;7.37;;;;;;;;;;5048208;28;20035;-81
2021/08/31 04:10:35;;;;;;;8.97;7.70;;;;;;;;;;5052311;28;20267;-82
2021/08/31 04:13:01;;;;;;;10.20;7.30;;;;;;;;;;5053780;28;20461;-83
2021/08/31 04:15:26;;;;;;;8.45;6.57;;;;;;;;;;5052549;28;20045;-83
2021/08/31 04:17:51;;;;;;;10.15;7.75;;;;;;;;;;5051884;28;20032;-82
2021/08/31 04:20:16;;;;;;;9.33;7.33;;;;;;;;;;5051969;28;20029;-82
2021/08/31 04:22:41;;;;;;;12.40;8.53;;;;;;;;;;5049525;28;20812;-82
2021/08/31 04:25:07;;;;;;;12.83;8.30;;;;;;;;;;5051174;28;20274;-83
2021/08/31 04:27:32;;;;;;;10.43;8.05;;;;;;;;;;5050387;28;20082;-83
2021/08/31 04:29:57;;;;;;;11.33;7.60;;;;;;;;;;5051278;28;20469;-82
2021/08/31 04:32:22;;;;;;;9.30;7.30;;;;;;;;;;5051602;28;20271;-83
2021/08/31 04:34:51;;;;;;;12.30;7.70;;;;;;;;;;5052343;28;20259;-82
2021/08/31 04:37:16;;;;;;;9.95;8.50;;;;;;;;;;5054637;28;20478;-82
2021/08/31 04:39:41;;;;;;;8.87;7.33;;;;;;;;;;5052727;28;20052;-82
2021/08/31 04:42:07;;;;;;;11.47;8.17;;;;;;;;;;5053991;28;20260;-82
2021/08/31 04:44:32;;;;;;;10.63;6.95;;;;;;;;;;5055852;28;20025;-82
2021/08/31 04:46:58;;;;;;;11.10;7.75;;;;;;;;;;5057448;28;20021;-82
2021/08/31 04:49:23;;;;;;;16.97;9.00;;;;;;;;;;5055137;28;20501;-82
2021/08/31 04:51:48;;;;;;;10.48;8.18;;;;;;;;;;5055582;28;20346;-82
2021/08/31 04:54:13;;;;;;;9.37;7.03;;;;;;;;;;5055713;28;20049;-82
2021/08/31 04:56:38;;;;;;;9.30;8.02;;;;;;;;;;5053234;28;20339;-82
2021/08/31 04:59:04;;;;;;;14.70;9.33;;;;;;;;;;5054091;28;20056;-82
2021/08/31 05:01:29;;;;;;;12.80;9.50;;;;;;;;;;5053765;28;20499;-82
2021/08/31 05:03:54;;;;;;;14.27;9.20;;;;;;;;;;5053355;28;20251;-81
2021/08/31 05:06:19;;;;;;;14.30;9.30;;;;;;;;;;5051410;28;20264;-81
2021/08/31 05:08:44;;;;;;;12.50;10.10;;;;;;;;;;5052886;28;20112;-82
2021/08/31 05:11:10;;;;;;;11.73;9.10;;;;;;;;;;5052666;28;20473;-82
2021/08/31 05:13:40;;;;;;;13.77;9.43;;;;;;;;;;5051669;28;20112;-82
2021/08/31 05:16:05;;;;;;;13.25;10.60;;;;;;;;;;5054397;28;20360;-82
2021/08/31 05:18:32;;;;;;;17.20;10.43;;;;;;;;;;5054050;28;20040;-82
2021/08/31 05:20:57;;;;;;;16.10;11.30;;;;;;;;;;5054217;28;20028;-82
2021/08/31 05:23:22;;;;;;;11.93;10.27;;;;;;;;;;5055854;28;20033;-82
2021/08/31 05:25:48;;;;;;;11.53;9.73;;;;;;;;;;5053996;28;20260;-82
2021/08/31 05:28:13;;;;;;;11.87;10.00;;;;;;;;;;5054782;28;20771;-82
2021/08/31 05:30:38;;;;;;;15.20;9.17;;;;;;;;;;5051778;28;20017;-83
2021/08/31 05:33:03;;;;;;;15.50;10.30;;;;;;;;;;5053316;28;20021;-82
2021/08/31 05:35:28;;;;;;;14.57;9.37;;;;;;;;;;5052705;28;20301;-82
2021/08/31 05:37:53;;;;;;;11.23;9.30;;;;;;;;;;5052531;28;20548;-82
2021/08/31 05:40:20;;;;;;;16.77;9.00;;;;;;;;;;5050996;28;20050;-82
2021/08/31 05:42:46;;;;;;;10.82;9.50;;;;;;;;;;5052243;28;20260;-82
2021/08/31 05:45:11;;;;;;;15.75;9.05;;;;;;;;;;5049658;28;20071;-81
2021/08/31 05:47:36;;;;;;;14.73;9.67;;;;;;;;;;5051604;28;20031;-81
2021/08/31 05:50:02;;;;;;;11.40;8.82;;;;;;;;;;5056014;28;20017;-82
2021/08/31 05:52:27;;;;;;;12.25;9.88;;;;;;;;;;5056078;28;20027;-83
2021/08/31 05:54:53;;;;;;;13.43;10.20;;;;;;;;;;5055012;28;20430;-82
2021/08/31 05:57:18;;;;;;;12.55;9.35;;;;;;;;;;5054945;28;20025;-82
2021/08/31 05:59:43;;;;;;;18.45;9.63;;;;;;;;;;5053808;28;20468;-82
2021/08/31 06:02:09;;;;;;;17.65;9.80;;;;;;;;;;5052705;28;20362;-82
2021/08/31 06:04:35;;;;;;;11.77;9.45;;;;;;;;;;5050951;28;20039;-82
2021/08/31 06:07:01;;;;;;;11.38;8.45;;;;;;;;;;5050500;28;20029;-82
2021/08/31 06:09:26;;;;;;;15.45;9.63;;;;;;;;;;5052331;28;20488;-82
2021/08/31 06:11:52;;;;;;;15.45;8.50;;;;;;;;;;5051582;28;20109;-82
2021/08/31 06:14:17;;;;;;;15.38;11.40;;;;;;;;;;5051666;28;20021;-81
2021/08/31 06:16:42;;;;;;;18.02;10.55;;;;;;;;;;5049844;28;20052;-82
2021/08/31 06:19:07;;;;;;;14.07;9.35;;;;;;;;;;5051357;28;20032;-82
2021/08/31 06:21:33;;;;;;;13.38;9.63;;;;;;;;;;5051594;28;20484;-81
2021/08/31 06:23:58;;;;;;;16.08;10.05;;;;;;;;;;5049826;28;20440;-82
2021/08/31 06:26:23;;;;;;;13.50;10.02;;;;;;;;;;5051688;28;20043;-82
2021/08/31 06:28:49;;;;;;;13.32;8.45;;;;;;;;;;5051439;28;20411;-81
2021/08/31 06:31:14;;;;;;;15.23;9.32;;;;;;;;;;5051498;28;20044;-81
2021/08/31 06:33:39;;;;;;;13.23;9.43;;;;;;;;;;5050005;28;20078;-82
2021/08/31 06:36:05;;;;;;;10.75;8.55;;;;;;;;;;5051287;28;20021;-82
2021/08/31 06:38:30;;;;;;;14.83;8.67;;;;;;;;;;5051114;28;20029;-82
2021/08/31 06:40:55;;;;;;;12.73;8.17;;;;;;;;;;5050960;28;20263;-82
2021/08/31 06:43:20;;;;;;;14.73;8.83;;;;;;;;;;5050835;28;20339;-82
2021/08/31 06:45:45;;;;;;;12.55;8.98;;;;;;;;;;5049522;28;20021;-82
2021/08/31 06:48:11;;;;;;;10.50;8.57;;;;;;;;;;5055342;28;20431;-83
2021/08/31 06:50:36;;;;;;;10.05;8.27;;;;;;;;;;5054303;28;20021;-83
2021/08/31 06:53:01;;;;;;;11.23;7.60;;;;;;;;;;5054219;28;20048;-82
2021/08/31 06:55:26;;;;;;;13.90;8.80;;;;;;;;;;5053998;28;20102;-83
2021/08/31 06:57:52;;;;;;;33.10;8.93;;;;;;;;;;5052796;28;20036;-82
2021/08/31 07:00:17;;;;;;;16.20;9.15;;;;;;;;;;5052714;28;20251;-82
2021/08/31 07:02:42;;;;;;;13.73;8.55;;;;;;;;;;5052695;28;20481;-82
2021/08/31 07:05:08;;;;;;;9.63;8.10;;;;;;;;;;5050541;28;20497;-82
2021/08/31 07:07:34;;;;;;;11.90;8.20;;;;;;;;;;5051746;28;20091;-82
2021/08/31 07:09:59;;;;;;;11.75;8.32;;;;;;;;;;5051581;28;20025;-82
2021/08/31 07:12:24;;;;;;;13.27;8.43;;;;;;;;;;5049391;28;20032;-82
2021/08/31 07:14:51;;;;;;;13.38;7.88;;;;;;;;;;5051096;28;20028;-82
2021/08/31 07:17:16;;;;;;;13.45;8.35;;;;;;;;;;5050505;28;20049;-81
2021/08/31 07:19:42;;;;;;;12.88;8.30;;;;;;;;;;5051511;28;20392;-82
2021/08/31 07:22:07;;;;;;;11.52;7.72;;;;;;;;;;5051087;28;20025;-82
2021/08/31 07:24:32;;;;;;;12.30;8.43;;;;;;;;;;5050360;28;20037;-82
2021/08/31 07:26:57;;;;;;;13.47;8.07;;;;;;;;;;5050231;28;20301;-82
2021/08/31 07:29:22;;;;;;;12.50;8.32;;;;;;;;;;5048895;28;20031;-82
2021/08/31 07:31:50;;;;;;;10.17;8.37;;;;;;;;;;5050357;28;20079;-82
2021/08/31 07:34:15;;;;;;;11.10;7.38;;;;;;;;;;5050017;28;20256;-82
2021/08/31 07:36:40;;;;;;;11.40;8.40;;;;;;;;;;5049900;28;20025;-82
2021/08/31 07:39:06;;;;;;;16.10;8.10;;;;;;;;;;5048389;28;20263;-82
2021/08/31 07:41:31;;;;;;;8.83;7.13;;;;;;;;;;5048204;28;20032;-82
2021/08/31 07:43:56;;;;;;;11.07;8.15;;;;;;;;;;5049822;28;20036;-82
2021/08/31 07:46:22;;;;;;;11.98;7.82;;;;;;;;;;5050876;28;20024;-82
2021/08/31 07:48:47;;;;;;;7.72;6.93;;;;;;;;;;5051101;28;20108;-82
2021/08/31 07:51:12;;;;;;;15.10;7.78;;;;;;;;;;5050493;28;20047;-82
2021/08/31 07:53:38;;;;;;;9.77;7.53;;;;;;;;;;5051094;28;20028;-82
2021/08/31 07:56:03;;;;;;;9.10;8.05;;;;;;;;;;5049587;28;20017;-82
2021/08/31 07:58:29;;;;;;;10.23;7.88;;;;;;;;;;5050835;28;20443;-82
2021/08/31 08:00:54;;;;;;;14.55;7.82;;;;;;;;;;5053646;28;20501;-82
2021/08/31 08:03:19;;;;;;;12.50;8.10;;;;;;;;;;5053201;28;20040;-82
2021/08/31 08:05:45;;;;;;;11.85;8.43;;;;;;;;;;5054170;28;20259;-82
2021/08/31 08:08:10;;;;;;;10.80;7.90;;;;;;;;;;5053576;28;20552;-83
2021/08/31 08:10:35;;;;;;;11.77;8.97;;;;;;;;;;5057248;28;20477;-83
2021/08/31 08:13:00;;;;;;;11.93;8.03;;;;;;;;;;5056784;28;20158;-83
2021/08/31 08:15:25;;;;;;;10.60;7.37;;;;;;;;;;5056282;28;21081;-82
2021/08/31 08:17:50;;;;;;;13.05;7.80;;;;;;;;;;5053672;28;20555;-81
2021/08/31 08:20:16;;;;;;;10.70;8.10;;;;;;;;;;5055364;28;20070;-82
2021/08/31 08:22:41;;;;;;;10.55;7.40;;;;;;;;;;5055012;28;20021;-82
2021/08/31 08:25:07;;;;;;;13.15;8.38;;;;;;;;;;5053325;28;20124;-82
2021/08/31 08:27:33;;;;;;;10.93;7.82;;;;;;;;;;5054380;28;20068;-82
2021/08/31 08:29:58;;;;;;;11.18;7.88;;;;;;;;;;5054181;28;20020;-83
2021/08/31 08:32:24;;;;;;;9.43;8.00;;;;;;;;;;5054248;28;20471;-82
2021/08/31 08:34:49;;;;;;;10.07;7.72;;;;;;;;;;5052645;28;20263;-83
2021/08/31 08:37:17;;;;;;;8.37;7.07;;;;;;;;;;5033154;28;20044;-83
2021/08/31 08:39:43;;;;;;;11.85;7.60;;;;;;;;;;5032800;28;20467;-83
2021/08/31 08:42:09;;;;;;;11.30;7.45;;;;;;;;;;5034613;28;20076;-83
2021/08/31 08:44:34;;;;;;;10.27;7.65;;;;;;;;;;5032506;28;20556;-83
2021/08/31 08:47:00;;;;;;;12.43;8.27;;;;;;;;;;5031478;28;20083;-83
2021/08/31 08:49:25;;;;;;;16.10;8.63;;;;;;;;;;5032927;28;20013;-83
2021/08/31 08:51:52;;;;;;;10.10;8.73;;;;;;;;;;5032084;28;20372;-83
2021/08/31 08:54:18;;;;;;;11.75;7.82;;;;;;;;;;5030551;28;20302;-83
2021/08/31 08:56:43;;;;;;;13.17;8.37;;;;;;;;;;5037446;28;20010;-83
2021/08/31 08:59:08;;;;;;;10.82;7.85;;;;;;;;;;5036035;28;20632;-84
2021/08/31 09:01:47;;;;;;;13.00;8.48;;;;;;;;;;5036460;28;20024;-83
2021/08/31 09:04:14;;;;;;;13.70;8.32;;;;;;;;;;5035799;28;20439;-83
2021/08/31 09:06:40;;;;;;;14.15;7.85;;;;;;;;;;5035102;28;20029;-83
2021/08/31 09:09:06;;;;;;;15.32;9.00;;;;;;;;;;5035590;28;20025;-83
2021/08/31 09:11:33;;;;;;;14.82;8.77;;;;;;;;;;5033219;28;20018;-83
2021/08/31 09:14:17;;;;;;;10.25;7.18;;;;;;;;;;5034119;28;20385;-83
2021/08/31 09:16:42;;;;;;;11.07;7.22;;;;;;;;;;5033125;28;20176;-83
2021/08/31 09:19:08;;;;;;;10.98;6.95;;;;;;;;;;5034761;28;20112;-84
2021/08/31 09:21:33;;;;;;;10.93;7.25;;;;;;;;;;5038683;28;20032;-83
2021/08/31 09:24:00;;;;;;;10.10;7.18;;;;;;;;;;5036320;28;20080;-83
2021/08/31 09:26:31;;;;;;;12.05;8.45;;;;;;;;;;5034697;28;20056;-83
2021/08/31 09:28:56;;;;;;;;;;;;;;;;;;5033823;28;20025;-83
2021/08/31 09:31:23;;;;;;;8.02;6.93;;;;;;;;;;5036139;28;19923;-83
2021/08/31 09:33:50;;;;;;;11.38;7.93;;;;;;;;;;5032926;28;20132;-83
2021/08/31 09:36:16;;;;;;;10.93;7.38;;;;;;;;;;5034322;28;20473;-84
2021/08/31 09:38:45;;;;;;;9.30;6.63;;;;;;;;;;5033561;28;20710;-83
2021/08/31 09:41:24;;;;;;;10.32;6.85;;;;;;;;;;5033216;28;20025;-82
2021/08/31 09:43:50;;;;;;;14.35;8.00;;;;;;;;;;5038228;28;20029;-83
2021/08/31 09:46:15;;;;;;;10.00;7.43;;;;;;;;;;5037870;28;20021;-83
2021/08/31 09:48:40;;;;;;;8.68;6.82;;;;;;;;;;5036707;28;20492;-84
2021/08/31 09:51:10;;;;;;;12.77;7.50;;;;;;;;;;5035276;28;20133;-82
2021/08/31 09:53:35;;;;;;;16.23;6.97;;;;;;;;;;5032531;28;20485;-83
2021/08/31 09:56:01;;;;;;;10.83;6.67;;;;;;;;;;5033917;28;20036;-83
2021/08/31 09:58:26;;;;;;;10.47;6.97;;;;;;;;;;5033186;28;20268;-84
2021/08/31 10:00:53;;;;;;;10.68;6.63;;;;;;;;;;5033436;28;20041;-83
2021/08/31 10:03:19;;;;;;;9.88;7.13;;;;;;;;;;5034555;28;20417;-83
2021/08/31 10:05:45;;;;;;;9.77;7.03;;;;;;;;;;5031714;28;20025;-83
2021/08/31 10:08:11;;;;;;;9.20;6.60;;;;;;;;;;5032883;28;20048;-83
2021/08/31 10:10:37;;;;;;;7.90;6.72;;;;;;;;;;5037538;28;20032;-84
2021/08/31 10:13:28;;;;;;;10.90;7.15;;;;;;;;;;5037149;28;20083;-84
2021/08/31 10:15:55;;;;;;;10.30;6.32;;;;;;;;;;5033378;28;20041;-84
2021/08/31 10:18:21;;;;;;;11.40;6.82;;;;;;;;;;5033684;28;20458;-83
2021/08/31 10:20:53;;;;;;;7.57;6.88;;;;;;;;;;5031707;28;20044;-83
2021/08/31 10:23:18;;;;;;;;;;;;;;;;;;5032776;28;20030;-83
2021/08/31 10:25:43;;;;;;;11.83;6.83;;;;;;;;;;5033127;28;19958;-83
2021/08/31 10:28:28;;;;;;;8.13;6.70;;;;;;;;;;5034892;28;20025;-84
2021/08/31 10:30:54;;;;;;;7.03;6.13;;;;;;;;;;5037128;28;20022;-84
2021/08/31 10:33:28;;;;;;;13.85;7.00;;;;;;;;;;5034694;28;20135;-83
2021/08/31 10:35:53;;;;;;;11.75;6.78;;;;;;;;;;5034853;28;20028;-83
2021/08/31 10:38:39;;;;;;;8.90;6.35;;;;;;;;;;5033409;28;20029;-83
2021/08/31 10:41:24;;;;;;;9.05;6.25;;;;;;;;;;5032483;28;20033;-82
2021/08/31 10:43:52;;;;;;;9.35;6.65;;;;;;;;;;5031597;28;20025;-83
2021/08/31 10:46:18;;;;;;;7.45;5.60;;;;;;;;;;5031411;28;20176;-83
2021/08/31 10:48:57;;;;;;;8.77;6.63;;;;;;;;;;5031626;28;20846;-83
2021/08/31 10:51:23;;;;;;;7.03;5.47;;;;;;;;;;5032211;28;20021;-84
2021/08/31 10:53:48;;;;;;;7.72;5.97;;;;;;;;;;5036720;28;20445;-83
2021/08/31 10:56:23;;;;;;;6.15;5.55;;;;;;;;;;5035460;28;20358;-83
2021/08/31 10:58:52;;;;;;;6.57;5.88;;;;;;;;;;5031754;28;20106;-83
2021/08/31 11:01:22;;;;;;;9.55;5.53;;;;;;;;;;5032087;28;20030;-84
2021/08/31 11:03:48;;;;;;;7.03;6.25;;;;;;;;;;5032809;28;20033;-83
2021/08/31 11:06:18;;;;;;;7.47;5.43;;;;;;;;;;5031878;28;20028;-83
2021/08/31 11:08:44;;;;;;;7.77;5.40;;;;;;;;;;5031545;28;20108;-83
2021/08/31 11:11:16;;;;;;;8.27;5.38;;;;;;;;;;5031737;28;20128;-83
2021/08/31 11:13:51;;;;;;;6.68;5.78;;;;;;;;;;5031163;28;20049;-83
2021/08/31 11:16:22;;;;;;;6.50;5.57;;;;;;;;;;5034657;28;20496;-83
2021/08/31 11:18:47;;;;;;;6.28;5.45;;;;;;;;;;5034320;28;20059;-84
2021/08/31 11:21:12;;;;;;;7.57;5.00;;;;;;;;;;5034382;28;20033;-84
2021/08/31 11:23:37;;;;;;;6.97;5.70;;;;;;;;;;5031816;28;20644;-83
2021/08/31 11:26:05;;;;;;;5.90;5.30;;;;;;;;;;5033221;28;20025;-83
2021/08/31 11:28:33;;;;;;;10.23;5.32;;;;;;;;;;5032443;28;20029;-83
2021/08/31 11:31:04;;;;;;;10.40;5.90;;;;;;;;;;5031425;28;20013;-83
2021/08/31 11:33:30;;;;;;;;;;;;;;;;;;5031663;28;20029;-83
2021/08/31 11:35:58;;;;;;;6.45;5.20;;;;;;;;;;5030713;28;20380;-83
2021/08/31 11:38:43;;;;;;;8.85;5.22;;;;;;;;;;5028623;28;20068;-83
2021/08/31 11:41:20;;;;;;;11.90;5.53;;;;;;;;;;5033262;28;20048;-83
2021/08/31 11:43:46;;;;;;;10.95;5.88;;;;;;;;;;5031508;28;20521;-84
2021/08/31 11:46:11;;;;;;;8.13;5.25;;;;;;;;;;5032498;28;20535;-83
2021/08/31 11:48:37;;;;;;;7.70;5.75;;;;;;;;;;5032083;28;20025;-83
2021/08/31 11:51:02;;;;;;;6.20;5.17;;;;;;;;;;5029698;28;20048;-84
2021/08/31 11:53:27;;;;;;;10.70;5.85;;;;;;;;;;5028982;28;20068;-84
2021/08/31 11:55:54;;;;;;;9.02;5.22;;;;;;;;;;5030686;28;20117;-83
2021/08/31 11:58:19;;;;;;;7.95;5.20;;;;;;;;;;5030556;28;20040;-84
2021/08/31 12:00:45;;;;;;;7.27;4.90;;;;;;;;;;5035051;28;20025;-83
2021/08/31 12:03:17;;;;;;;11.80;5.68;;;;;;;;;;5034610;28;20036;-84
2021/08/31 12:05:42;;;;;;;6.90;5.25;;;;;;;;;;5033330;28;20022;-84
2021/08/31 12:08:07;;;;;;;8.23;4.85;;;;;;;;;;5032743;28;20032;-83
2021/08/31 12:10:33;;;;;;;6.70;5.00;;;;;;;;;;5031885;28;20516;-83
2021/08/31 12:12:58;;;;;;;7.40;5.85;;;;;;;;;;5030520;28;20021;-83
2021/08/31 12:15:24;;;;;;;10.15;5.13;;;;;;;;;;5029064;28;20511;-83
2021/08/31 12:17:58;;;;;;;7.72;5.85;;;;;;;;;;5028863;28;20102;-83
2021/08/31 12:20:24;;;;;;;6.35;5.35;;;;;;;;;;5030270;28;20040;-83
2021/08/31 12:22:49;;;;;;;7.10;5.15;;;;;;;;;;5033744;28;20025;-84
2021/08/31 12:25:15;;;;;;;7.97;5.45;;;;;;;;;;5031890;28;20072;-84
2021/08/31 12:27:45;;;;;;;6.70;5.63;;;;;;;;;;5033058;28;20029;-84
2021/08/31 12:30:12;;;;;;;5.53;4.97;;;;;;;;;;5031755;28;20029;-84
2021/08/31 12:32:37;;;;;;;5.80;4.82;;;;;;;;;;5029608;28;20053;-83
2021/08/31 12:35:23;;;;;;;8.68;5.57;;;;;;;;;;5028962;28;20174;-83
2021/08/31 12:38:02;;;;;;;5.53;5.03;;;;;;;;;;5029690;28;20080;-83
2021/08/31 12:40:28;;;;;;;10.07;5.57;;;;;;;;;;5028962;28;20436;-84
2021/08/31 12:43:01;;;;;;;5.60;4.65;;;;;;;;;;5031336;28;20029;-84
2021/08/31 12:45:27;;;;;;;7.72;4.88;;;;;;;;;;5030877;28;20021;-83
2021/08/31 12:47:53;;;;;;;7.07;4.70;;;;;;;;;;5029726;28;20030;-83
2021/08/31 12:50:19;;;;;;;5.82;4.57;;;;;;;;;;5028180;28;20104;-84
2021/08/31 12:52:44;;;;;;;6.20;5.13;;;;;;;;;;5028062;28;20052;-84
2021/08/31 12:55:17;;;;;;;5.23;4.77;;;;;;;;;;5029473;28;20022;-84
2021/08/31 12:57:42;;;;;;;7.07;5.15;;;;;;;;;;5032943;28;20260;-84
2021/08/31 13:00:17;;;;;;;6.47;4.30;;;;;;;;;;5031295;28;20026;-84
2021/08/31 13:02:42;;;;;;;4.85;4.40;;;;;;;;;;5032810;28;20036;-84
2021/08/31 13:05:11;;;;;;;5.80;4.23;;;;;;;;;;5032712;28;20108;-84
2021/08/31 13:07:36;;;;;;;5.63;4.50;;;;;;;;;;5032460;28;20033;-84
2021/08/31 13:10:02;;;;;;;10.60;4.20;;;;;;;;;;5031236;28;20659;-84
2021/08/31 13:12:27;;;;;;;11.38;4.80;;;;;;;;;;5032657;28;20022;-84
2021/08/31 13:14:52;;;;;;;8.02;4.57;;;;;;;;;;5032560;28;20024;-84
2021/08/31 13:17:18;;;;;;;5.73;4.13;;;;;;;;;;5032294;28;20053;-84
2021/08/31 13:19:44;;;;;;;6.13;4.53;;;;;;;;;;5032323;28;20033;-84
2021/08/31 13:22:10;;;;;;;5.90;4.20;;;;;;;;;;5032276;28;20018;-84
2021/08/31 13:24:35;;;;;;;5.97;3.93;;;;;;;;;;5030543;28;20024;-84
2021/08/31 13:27:00;;;;;;;6.53;3.90;;;;;;;;;;5030731;28;20435;-84
2021/08/31 13:29:26;;;;;;;6.53;4.10;;;;;;;;;;5031905;28;20017;-84
2021/08/31 13:31:51;;;;;;;5.93;3.88;;;;;;;;;;5031942;28;20036;-85
2021/08/31 13:34:16;;;;;;;6.27;4.13;;;;;;;;;;5032124;28;20477;-84
2021/08/31 13:36:42;;;;;;;4.20;3.75;;;;;;;;;;5032159;28;20045;-85
2021/08/31 13:39:09;;;;;;;4.05;3.65;;;;;;;;;;5032304;28;20643;-84
2021/08/31 13:41:34;;;;;;;4.97;4.38;;;;;;;;;;5031923;28;20362;-84
2021/08/31 13:44:00;;;;;;;7.75;3.75;;;;;;;;;;5032010;28;20067;-84
2021/08/31 13:46:26;;;;;;;4.35;3.67;;;;;;;;;;5030210;28;20029;-85
2021/08/31 13:48:51;;;;;;;5.30;3.72;;;;;;;;;;5031652;28;20038;-85
2021/08/31 13:51:16;;;;;;;4.00;3.70;;;;;;;;;;5031620;28;20093;-84
2021/08/31 13:53:42;;;;;;;9.77;3.72;;;;;;;;;;5031508;28;20021;-85
2021/08/31 13:56:07;;;;;;;6.25;3.63;;;;;;;;;;5031537;28;20060;-85
2021/08/31 13:58:33;;;;;;;5.78;4.05;;;;;;;;;;5031457;28;20500;-84
2021/08/31 14:00:58;;;;;;;4.20;3.70;;;;;;;;;;5030370;28;20025;-85
2021/08/31 14:03:23;;;;;;;4.28;3.90;;;;;;;;;;5031480;28;20032;-85
2021/08/31 14:05:48;;;;;;;6.38;4.10;;;;;;;;;;5029727;28;20477;-85
2021/08/31 14:08:14;;;;;;;4.07;3.77;;;;;;;;;;5031129;28;20466;-85
2021/08/31 14:10:39;;;;;;;6.50;3.57;;;;;;;;;;5029881;28;20446;-84
2021/08/31 14:13:04;;;;;;;5.67;3.70;;;;;;;;;;5031440;28;20306;-85
2021/08/31 14:15:30;;;;;;;4.07;3.67;;;;;;;;;;5030979;28;20124;-85
2021/08/31 14:17:56;;;;;;;6.22;4.00;;;;;;;;;;5031299;28;20037;-84
2021/08/31 14:20:21;;;;;;;7.05;4.07;;;;;;;;;;5031231;28;20829;-85
2021/08/31 14:22:46;;;;;;;3.90;3.60;;;;;;;;;;5030971;28;20398;-85
2021/08/31 14:25:12;;;;;;;3.92;3.63;;;;;;;;;;5029867;28;20382;-85
2021/08/31 14:27:37;;;;;;;5.60;3.55;;;;;;;;;;5031146;28;20152;-85
2021/08/31 14:30:03;;;;;;;4.30;3.95;;;;;;;;;;5030938;28;20025;-84